sensor_id;sensor_type;location;lat;lon;timestamp;P1;durP1;ratioP1;P2;durP2;ratioP2
5475;SDS011;2760;50.000;9.194;2022-12-20T00:01:05;69.00;;;30.50;;
5475;SDS011;2760;50.000;9.194;2022-12-20T00:03:33;76.40;;;33.43;;
5475;SDS011;2760;50.000;9.194;2022-12-20T00:06:00;84.27;;;31.67;;
5475;SDS011;2760;50.000;9.194;2022-12-20T00:08:27;78.50;;;31.33;;
5475;SDS011;2760;50.000;9.194;2022-12-20T00:10:58;68.53;;;29.83;;
5475;SDS011;2760;50.000;9.194;2022-12-20T00:13:27;74.73;;;30.30;;
5475;SDS011;2760;50.000;9.194;2022-12-20T00:16:02;56.50;;;27.10;;
5475;SDS011;2760;50.000;9.194;2022-12-20T00:18:30;65.43;;;30.60;;
5475;SDS011;2760;50.000;9.194;2022-12-20T00:20:57;67.03;;;29.40;;
5475;SDS011;2760;50.000;9.194;2022-12-20T00:23:25;61.73;;;30.77;;
5475;SDS011;2760;50.000;9.194;2022-12-20T00:25:59;75.13;;;30.00;;
5475;SDS011;2760;50.000;9.194;2022-12-20T00:28:27;73.00;;;30.50;;
5475;SDS011;2760;50.000;9.194;2022-12-20T00:30:54;67.10;;;31.40;;
5475;SDS011;2760;50.000;9.194;2022-12-20T00:33:22;57.30;;;25.13;;
5475;SDS011;2760;50.000;9.194;2022-12-20T00:35:49;71.50;;;29.07;;
5475;SDS011;2760;50.000;9.194;2022-12-20T00:38:16;67.43;;;28.17;;
5475;SDS011;2760;50.000;9.194;2022-12-20T00:40:43;68.03;;;28.63;;
5475;SDS011;2760;50.000;9.194;2022-12-20T00:43:11;70.07;;;27.43;;
5475;SDS011;2760;50.000;9.194;2022-12-20T00:45:38;63.87;;;27.17;;
5475;SDS011;2760;50.000;9.194;2022-12-20T00:48:05;65.70;;;29.70;;
5475;SDS011;2760;50.000;9.194;2022-12-20T00:50:32;61.23;;;28.50;;
5475;SDS011;2760;50.000;9.194;2022-12-20T00:52:59;67.27;;;30.50;;
5475;SDS011;2760;50.000;9.194;2022-12-20T00:55:26;48.17;;;23.10;;
5475;SDS011;2760;50.000;9.194;2022-12-20T00:57:53;66.40;;;26.20;;
5475;SDS011;2760;50.000;9.194;2022-12-20T01:00:21;57.97;;;26.30;;
5475;SDS011;2760;50.000;9.194;2022-12-20T01:02:48;61.73;;;27.00;;
5475;SDS011;2760;50.000;9.194;2022-12-20T01:05:16;62.67;;;24.90;;
5475;SDS011;2760;50.000;9.194;2022-12-20T01:07:43;57.93;;;28.17;;
5475;SDS011;2760;50.000;9.194;2022-12-20T01:10:10;65.97;;;30.10;;
5475;SDS011;2760;50.000;9.194;2022-12-20T01:12:37;61.97;;;28.10;;
5475;SDS011;2760;50.000;9.194;2022-12-20T01:15:05;60.67;;;27.50;;
5475;SDS011;2760;50.000;9.194;2022-12-20T01:17:36;65.00;;;28.00;;
5475;SDS011;2760;50.000;9.194;2022-12-20T01:20:04;58.90;;;26.37;;
5475;SDS011;2760;50.000;9.194;2022-12-20T01:22:32;65.33;;;27.10;;
5475;SDS011;2760;50.000;9.194;2022-12-20T01:24:59;56.70;;;26.97;;
5475;SDS011;2760;50.000;9.194;2022-12-20T01:27:28;59.73;;;27.97;;
5475;SDS011;2760;50.000;9.194;2022-12-20T01:29:55;61.50;;;27.63;;
5475;SDS011;2760;50.000;9.194;2022-12-20T01:32:22;72.20;;;29.03;;
5475;SDS011;2760;50.000;9.194;2022-12-20T01:34:50;66.90;;;29.87;;
5475;SDS011;2760;50.000;9.194;2022-12-20T01:37:19;61.43;;;29.70;;
5475;SDS011;2760;50.000;9.194;2022-12-20T01:39:46;67.23;;;30.67;;
5475;SDS011;2760;50.000;9.194;2022-12-20T01:42:13;72.17;;;30.57;;
5475;SDS011;2760;50.000;9.194;2022-12-20T01:44:50;66.93;;;31.60;;
5475;SDS011;2760;50.000;9.194;2022-12-20T01:47:24;71.40;;;31.83;;
5475;SDS011;2760;50.000;9.194;2022-12-20T01:49:55;66.43;;;30.43;;
5475;SDS011;2760;50.000;9.194;2022-12-20T01:52:28;66.33;;;28.60;;
5475;SDS011;2760;50.000;9.194;2022-12-20T01:55:01;73.57;;;30.23;;
5475;SDS011;2760;50.000;9.194;2022-12-20T01:57:33;64.47;;;29.70;;
5475;SDS011;2760;50.000;9.194;2022-12-20T02:00:04;62.90;;;29.47;;
5475;SDS011;2760;50.000;9.194;2022-12-20T02:02:38;68.80;;;31.00;;
5475;SDS011;2760;50.000;9.194;2022-12-20T02:05:07;68.93;;;30.90;;
5475;SDS011;2760;50.000;9.194;2022-12-20T02:07:35;73.10;;;31.13;;
5475;SDS011;2760;50.000;9.194;2022-12-20T02:10:07;64.90;;;30.70;;
5475;SDS011;2760;50.000;9.194;2022-12-20T02:12:37;68.47;;;29.87;;
5475;SDS011;2760;50.000;9.194;2022-12-20T02:15:14;60.43;;;26.10;;
5475;SDS011;2760;50.000;9.194;2022-12-20T02:17:57;59.07;;;27.60;;
5475;SDS011;2760;50.000;9.194;2022-12-20T02:23:52;58.67;;;26.53;;
5475;SDS011;2760;50.000;9.194;2022-12-20T02:26:40;61.60;;;25.73;;
5475;SDS011;2760;50.000;9.194;2022-12-20T02:29:32;59.53;;;26.00;;
5475;SDS011;2760;50.000;9.194;2022-12-20T02:32:04;58.57;;;27.40;;
5475;SDS011;2760;50.000;9.194;2022-12-20T02:34:38;59.47;;;28.20;;
5475;SDS011;2760;50.000;9.194;2022-12-20T02:37:07;67.57;;;28.80;;
5475;SDS011;2760;50.000;9.194;2022-12-20T02:39:35;64.20;;;29.33;;
5475;SDS011;2760;50.000;9.194;2022-12-20T02:42:05;62.70;;;28.80;;
5475;SDS011;2760;50.000;9.194;2022-12-20T02:44:34;65.03;;;29.90;;
5475;SDS011;2760;50.000;9.194;2022-12-20T02:47:23;69.00;;;29.47;;
5475;SDS011;2760;50.000;9.194;2022-12-20T02:49:59;66.03;;;30.57;;
5475;SDS011;2760;50.000;9.194;2022-12-20T02:52:27;61.47;;;27.90;;
5475;SDS011;2760;50.000;9.194;2022-12-20T02:54:57;63.97;;;30.60;;
5475;SDS011;2760;50.000;9.194;2022-12-20T02:57:31;56.97;;;29.47;;
5475;SDS011;2760;50.000;9.194;2022-12-20T03:00:05;67.73;;;29.97;;
5475;SDS011;2760;50.000;9.194;2022-12-20T03:02:37;55.93;;;26.30;;
5475;SDS011;2760;50.000;9.194;2022-12-20T03:05:24;56.97;;;29.00;;
5475;SDS011;2760;50.000;9.194;2022-12-20T03:07:52;57.40;;;27.90;;
5475;SDS011;2760;50.000;9.194;2022-12-20T03:10:23;53.40;;;28.33;;
5475;SDS011;2760;50.000;9.194;2022-12-20T03:12:50;60.93;;;28.80;;
5475;SDS011;2760;50.000;9.194;2022-12-20T03:15:18;57.60;;;28.83;;
5475;SDS011;2760;50.000;9.194;2022-12-20T03:17:53;64.10;;;29.77;;
5475;SDS011;2760;50.000;9.194;2022-12-20T03:20:20;60.10;;;29.50;;
5475;SDS011;2760;50.000;9.194;2022-12-20T03:22:47;57.53;;;27.40;;
5475;SDS011;2760;50.000;9.194;2022-12-20T03:25:16;50.87;;;25.30;;
5475;SDS011;2760;50.000;9.194;2022-12-20T03:27:48;53.07;;;26.67;;
5475;SDS011;2760;50.000;9.194;2022-12-20T03:30:18;56.33;;;25.70;;
5475;SDS011;2760;50.000;9.194;2022-12-20T03:32:45;57.53;;;26.73;;
5475;SDS011;2760;50.000;9.194;2022-12-20T03:35:14;56.33;;;27.97;;
5475;SDS011;2760;50.000;9.194;2022-12-20T03:37:42;65.83;;;29.30;;
5475;SDS011;2760;50.000;9.194;2022-12-20T03:40:11;63.83;;;28.20;;
5475;SDS011;2760;50.000;9.194;2022-12-20T03:42:40;63.37;;;30.30;;
5475;SDS011;2760;50.000;9.194;2022-12-20T03:45:08;63.93;;;30.37;;
5475;SDS011;2760;50.000;9.194;2022-12-20T03:47:35;55.83;;;28.07;;
5475;SDS011;2760;50.000;9.194;2022-12-20T03:50:04;57.03;;;28.13;;
5475;SDS011;2760;50.000;9.194;2022-12-20T03:52:35;52.90;;;26.67;;
5475;SDS011;2760;50.000;9.194;2022-12-20T03:55:05;55.10;;;26.77;;
5475;SDS011;2760;50.000;9.194;2022-12-20T03:57:39;55.33;;;26.63;;
5475;SDS011;2760;50.000;9.194;2022-12-20T04:00:20;48.63;;;25.37;;
5475;SDS011;2760;50.000;9.194;2022-12-20T04:02:52;55.43;;;25.77;;
5475;SDS011;2760;50.000;9.194;2022-12-20T04:05:20;63.10;;;25.70;;
5475;SDS011;2760;50.000;9.194;2022-12-20T04:07:51;56.57;;;27.63;;
5475;SDS011;2760;50.000;9.194;2022-12-20T04:10:19;66.97;;;28.60;;
5475;SDS011;2760;50.000;9.194;2022-12-20T04:12:46;60.10;;;29.27;;
5475;SDS011;2760;50.000;9.194;2022-12-20T04:15:15;53.60;;;26.23;;
5475;SDS011;2760;50.000;9.194;2022-12-20T04:17:43;56.87;;;27.83;;
5475;SDS011;2760;50.000;9.194;2022-12-20T04:20:12;48.63;;;25.17;;
5475;SDS011;2760;50.000;9.194;2022-12-20T04:22:55;57.93;;;26.13;;
5475;SDS011;2760;50.000;9.194;2022-12-20T04:25:22;53.57;;;27.57;;
5475;SDS011;2760;50.000;9.194;2022-12-20T04:27:53;54.37;;;24.93;;
5475;SDS011;2760;50.000;9.194;2022-12-20T04:30:21;54.53;;;26.33;;
5475;SDS011;2760;50.000;9.194;2022-12-20T04:32:48;68.70;;;30.03;;
5475;SDS011;2760;50.000;9.194;2022-12-20T04:35:19;56.10;;;26.50;;
5475;SDS011;2760;50.000;9.194;2022-12-20T04:37:46;54.43;;;27.03;;
5475;SDS011;2760;50.000;9.194;2022-12-20T04:40:15;54.07;;;26.13;;
5475;SDS011;2760;50.000;9.194;2022-12-20T04:42:47;63.93;;;25.50;;
5475;SDS011;2760;50.000;9.194;2022-12-20T04:45:15;52.83;;;24.90;;
5475;SDS011;2760;50.000;9.194;2022-12-20T04:47:45;57.93;;;25.10;;
5475;SDS011;2760;50.000;9.194;2022-12-20T04:50:16;50.73;;;25.53;;
5475;SDS011;2760;50.000;9.194;2022-12-20T04:52:44;51.63;;;26.33;;
5475;SDS011;2760;50.000;9.194;2022-12-20T04:55:32;56.47;;;25.70;;
5475;SDS011;2760;50.000;9.194;2022-12-20T04:58:03;50.43;;;25.87;;
5475;SDS011;2760;50.000;9.194;2022-12-20T05:00:30;62.70;;;26.67;;
5475;SDS011;2760;50.000;9.194;2022-12-20T05:03:06;51.40;;;26.23;;
5475;SDS011;2760;50.000;9.194;2022-12-20T05:05:33;50.10;;;26.43;;
5475;SDS011;2760;50.000;9.194;2022-12-20T05:08:00;55.00;;;26.90;;
5475;SDS011;2760;50.000;9.194;2022-12-20T05:10:29;57.40;;;27.97;;
5475;SDS011;2760;50.000;9.194;2022-12-20T05:13:01;55.17;;;26.43;;
5475;SDS011;2760;50.000;9.194;2022-12-20T05:15:34;52.87;;;28.33;;
5475;SDS011;2760;50.000;9.194;2022-12-20T05:18:01;59.13;;;26.90;;
5475;SDS011;2760;50.000;9.194;2022-12-20T05:20:40;55.53;;;26.90;;
5475;SDS011;2760;50.000;9.194;2022-12-20T05:23:09;50.10;;;25.00;;
5475;SDS011;2760;50.000;9.194;2022-12-20T05:26:07;64.43;;;29.03;;
5475;SDS011;2760;50.000;9.194;2022-12-20T05:28:48;53.90;;;27.00;;
5475;SDS011;2760;50.000;9.194;2022-12-20T05:31:16;69.30;;;28.97;;
5475;SDS011;2760;50.000;9.194;2022-12-20T05:33:43;50.37;;;26.63;;
5475;SDS011;2760;50.000;9.194;2022-12-20T05:36:10;56.33;;;27.20;;
5475;SDS011;2760;50.000;9.194;2022-12-20T05:38:37;57.40;;;26.97;;
5475;SDS011;2760;50.000;9.194;2022-12-20T05:41:12;55.53;;;25.00;;
5475;SDS011;2760;50.000;9.194;2022-12-20T05:43:44;40.50;;;23.47;;
5475;SDS011;2760;50.000;9.194;2022-12-20T05:46:11;45.43;;;25.23;;
5475;SDS011;2760;50.000;9.194;2022-12-20T05:48:50;55.63;;;26.60;;
5475;SDS011;2760;50.000;9.194;2022-12-20T05:51:18;52.20;;;25.20;;
5475;SDS011;2760;50.000;9.194;2022-12-20T05:54:08;69.57;;;25.80;;
5475;SDS011;2760;50.000;9.194;2022-12-20T05:56:44;57.87;;;27.60;;
5475;SDS011;2760;50.000;9.194;2022-12-20T05:59:11;56.60;;;27.50;;
5475;SDS011;2760;50.000;9.194;2022-12-20T06:01:41;55.90;;;27.97;;
5475;SDS011;2760;50.000;9.194;2022-12-20T06:04:09;59.63;;;27.33;;
5475;SDS011;2760;50.000;9.194;2022-12-20T06:06:36;54.70;;;27.37;;
5475;SDS011;2760;50.000;9.194;2022-12-20T06:09:03;53.80;;;25.63;;
5475;SDS011;2760;50.000;9.194;2022-12-20T06:11:45;55.37;;;28.80;;
5475;SDS011;2760;50.000;9.194;2022-12-20T06:14:13;55.57;;;27.57;;
5475;SDS011;2760;50.000;9.194;2022-12-20T06:16:44;50.60;;;25.97;;
5475;SDS011;2760;50.000;9.194;2022-12-20T06:19:12;58.23;;;27.53;;
5475;SDS011;2760;50.000;9.194;2022-12-20T06:21:42;60.77;;;27.27;;
5475;SDS011;2760;50.000;9.194;2022-12-20T06:24:12;48.43;;;25.87;;
5475;SDS011;2760;50.000;9.194;2022-12-20T06:26:54;60.63;;;27.17;;
5475;SDS011;2760;50.000;9.194;2022-12-20T06:29:24;50.37;;;26.87;;
5475;SDS011;2760;50.000;9.194;2022-12-20T06:32:01;50.30;;;25.47;;
5475;SDS011;2760;50.000;9.194;2022-12-20T06:34:29;69.47;;;27.90;;
5475;SDS011;2760;50.000;9.194;2022-12-20T06:36:57;57.90;;;26.77;;
5475;SDS011;2760;50.000;9.194;2022-12-20T06:39:27;52.17;;;26.13;;
5475;SDS011;2760;50.000;9.194;2022-12-20T06:42:02;60.40;;;28.50;;
5475;SDS011;2760;50.000;9.194;2022-12-20T06:44:29;60.90;;;27.40;;
5475;SDS011;2760;50.000;9.194;2022-12-20T06:46:57;50.47;;;26.03;;
5475;SDS011;2760;50.000;9.194;2022-12-20T06:49:25;54.47;;;26.50;;
5475;SDS011;2760;50.000;9.194;2022-12-20T06:51:54;55.93;;;27.20;;
5475;SDS011;2760;50.000;9.194;2022-12-20T06:54:30;53.80;;;26.17;;
5475;SDS011;2760;50.000;9.194;2022-12-20T06:56:57;53.80;;;26.43;;
5475;SDS011;2760;50.000;9.194;2022-12-20T06:59:26;41.63;;;22.03;;
5475;SDS011;2760;50.000;9.194;2022-12-20T07:01:53;49.73;;;24.50;;
5475;SDS011;2760;50.000;9.194;2022-12-20T07:04:20;55.23;;;28.40;;
5475;SDS011;2760;50.000;9.194;2022-12-20T07:06:47;59.00;;;25.20;;
5475;SDS011;2760;50.000;9.194;2022-12-20T07:09:14;53.90;;;26.60;;
5475;SDS011;2760;50.000;9.194;2022-12-20T07:11:42;52.63;;;27.13;;
5475;SDS011;2760;50.000;9.194;2022-12-20T07:14:09;61.73;;;27.60;;
5475;SDS011;2760;50.000;9.194;2022-12-20T07:16:37;58.30;;;28.53;;
5475;SDS011;2760;50.000;9.194;2022-12-20T07:19:05;59.00;;;27.03;;
5475;SDS011;2760;50.000;9.194;2022-12-20T07:21:32;56.17;;;27.30;;
5475;SDS011;2760;50.000;9.194;2022-12-20T07:23:59;52.73;;;23.87;;
5475;SDS011;2760;50.000;9.194;2022-12-20T07:26:26;48.57;;;25.63;;
5475;SDS011;2760;50.000;9.194;2022-12-20T07:28:53;57.30;;;27.90;;
5475;SDS011;2760;50.000;9.194;2022-12-20T07:31:20;52.87;;;27.97;;
5475;SDS011;2760;50.000;9.194;2022-12-20T07:33:49;48.67;;;27.10;;
5475;SDS011;2760;50.000;9.194;2022-12-20T07:36:16;65.53;;;29.50;;
5475;SDS011;2760;50.000;9.194;2022-12-20T07:38:43;49.20;;;25.23;;
5475;SDS011;2760;50.000;9.194;2022-12-20T07:41:11;50.53;;;25.90;;
5475;SDS011;2760;50.000;9.194;2022-12-20T07:43:39;50.23;;;24.97;;
5475;SDS011;2760;50.000;9.194;2022-12-20T07:46:08;55.17;;;26.53;;
5475;SDS011;2760;50.000;9.194;2022-12-20T07:48:37;60.13;;;26.30;;
5475;SDS011;2760;50.000;9.194;2022-12-20T07:51:06;56.17;;;27.57;;
5475;SDS011;2760;50.000;9.194;2022-12-20T07:53:41;53.80;;;27.43;;
5475;SDS011;2760;50.000;9.194;2022-12-20T07:56:14;52.97;;;26.60;;
5475;SDS011;2760;50.000;9.194;2022-12-20T07:58:42;46.67;;;24.67;;
5475;SDS011;2760;50.000;9.194;2022-12-20T08:01:09;54.40;;;26.60;;
5475;SDS011;2760;50.000;9.194;2022-12-20T08:03:39;54.00;;;26.50;;
5475;SDS011;2760;50.000;9.194;2022-12-20T08:06:12;48.57;;;24.53;;
5475;SDS011;2760;50.000;9.194;2022-12-20T08:08:41;56.00;;;27.27;;
5475;SDS011;2760;50.000;9.194;2022-12-20T08:11:13;52.97;;;24.87;;
5475;SDS011;2760;50.000;9.194;2022-12-20T08:13:42;52.87;;;26.57;;
5475;SDS011;2760;50.000;9.194;2022-12-20T08:16:10;51.70;;;25.10;;
5475;SDS011;2760;50.000;9.194;2022-12-20T08:18:37;53.70;;;25.47;;
5475;SDS011;2760;50.000;9.194;2022-12-20T08:21:04;52.93;;;25.97;;
5475;SDS011;2760;50.000;9.194;2022-12-20T08:23:32;49.30;;;20.60;;
5475;SDS011;2760;50.000;9.194;2022-12-20T08:25:59;51.90;;;26.40;;
5475;SDS011;2760;50.000;9.194;2022-12-20T08:28:27;49.20;;;26.27;;
5475;SDS011;2760;50.000;9.194;2022-12-20T08:30:58;52.20;;;26.50;;
5475;SDS011;2760;50.000;9.194;2022-12-20T08:33:26;56.30;;;26.20;;
5475;SDS011;2760;50.000;9.194;2022-12-20T08:35:57;54.27;;;27.10;;
5475;SDS011;2760;50.000;9.194;2022-12-20T08:38:25;59.20;;;26.30;;
5475;SDS011;2760;50.000;9.194;2022-12-20T08:40:54;55.30;;;26.50;;
5475;SDS011;2760;50.000;9.194;2022-12-20T08:43:22;50.60;;;25.10;;
5475;SDS011;2760;50.000;9.194;2022-12-20T08:45:52;45.83;;;23.97;;
5475;SDS011;2760;50.000;9.194;2022-12-20T08:48:20;52.90;;;24.43;;
5475;SDS011;2760;50.000;9.194;2022-12-20T08:50:47;47.63;;;25.37;;
5475;SDS011;2760;50.000;9.194;2022-12-20T08:53:19;63.90;;;28.37;;
5475;SDS011;2760;50.000;9.194;2022-12-20T08:55:46;40.37;;;20.97;;
5475;SDS011;2760;50.000;9.194;2022-12-20T08:58:15;48.80;;;25.10;;
5475;SDS011;2760;50.000;9.194;2022-12-20T09:00:42;51.47;;;24.90;;
5475;SDS011;2760;50.000;9.194;2022-12-20T09:03:10;55.03;;;26.43;;
5475;SDS011;2760;50.000;9.194;2022-12-20T09:05:42;54.03;;;26.87;;
5475;SDS011;2760;50.000;9.194;2022-12-20T09:08:10;50.03;;;25.77;;
5475;SDS011;2760;50.000;9.194;2022-12-20T09:10:37;54.77;;;27.03;;
5475;SDS011;2760;50.000;9.194;2022-12-20T09:13:04;57.83;;;26.93;;
5475;SDS011;2760;50.000;9.194;2022-12-20T09:15:34;50.60;;;27.67;;
5475;SDS011;2760;50.000;9.194;2022-12-20T09:18:01;54.23;;;26.83;;
5475;SDS011;2760;50.000;9.194;2022-12-20T09:20:28;50.73;;;26.10;;
5475;SDS011;2760;50.000;9.194;2022-12-20T09:22:56;56.30;;;26.80;;
5475;SDS011;2760;50.000;9.194;2022-12-20T09:25:24;49.27;;;25.33;;
5475;SDS011;2760;50.000;9.194;2022-12-20T09:27:51;47.67;;;24.43;;
5475;SDS011;2760;50.000;9.194;2022-12-20T09:30:20;46.43;;;24.97;;
5475;SDS011;2760;50.000;9.194;2022-12-20T09:32:49;45.97;;;26.57;;
5475;SDS011;2760;50.000;9.194;2022-12-20T09:35:17;52.83;;;27.73;;
5475;SDS011;2760;50.000;9.194;2022-12-20T09:37:44;55.23;;;27.00;;
5475;SDS011;2760;50.000;9.194;2022-12-20T09:40:13;50.10;;;27.67;;
5475;SDS011;2760;50.000;9.194;2022-12-20T09:42:44;51.57;;;25.50;;
5475;SDS011;2760;50.000;9.194;2022-12-20T09:45:14;55.03;;;26.97;;
5475;SDS011;2760;50.000;9.194;2022-12-20T09:47:50;46.37;;;24.33;;
5475;SDS011;2760;50.000;9.194;2022-12-20T09:50:18;46.73;;;24.37;;
5475;SDS011;2760;50.000;9.194;2022-12-20T09:52:58;48.10;;;24.73;;
5475;SDS011;2760;50.000;9.194;2022-12-20T09:55:40;52.13;;;26.53;;
5475;SDS011;2760;50.000;9.194;2022-12-20T09:58:20;54.43;;;28.33;;
5475;SDS011;2760;50.000;9.194;2022-12-20T10:01:04;49.20;;;25.00;;
5475;SDS011;2760;50.000;9.194;2022-12-20T10:03:41;47.50;;;25.33;;
5475;SDS011;2760;50.000;9.194;2022-12-20T10:06:09;47.10;;;27.03;;
5475;SDS011;2760;50.000;9.194;2022-12-20T10:08:49;50.23;;;26.13;;
5475;SDS011;2760;50.000;9.194;2022-12-20T10:14:18;40.27;;;23.83;;
5475;SDS011;2760;50.000;9.194;2022-12-20T10:17:11;47.63;;;23.40;;
5475;SDS011;2760;50.000;9.194;2022-12-20T10:19:58;44.60;;;23.47;;
5475;SDS011;2760;50.000;9.194;2022-12-20T10:22:36;46.50;;;24.10;;
5475;SDS011;2760;50.000;9.194;2022-12-20T10:25:13;45.07;;;23.80;;
5475;SDS011;2760;50.000;9.194;2022-12-20T10:27:43;46.93;;;24.97;;
5475;SDS011;2760;50.000;9.194;2022-12-20T10:30:13;46.73;;;24.60;;
5475;SDS011;2760;50.000;9.194;2022-12-20T10:32:42;56.63;;;25.37;;
5475;SDS011;2760;50.000;9.194;2022-12-20T10:35:22;50.17;;;23.77;;
5475;SDS011;2760;50.000;9.194;2022-12-20T10:37:58;45.17;;;24.30;;
5475;SDS011;2760;50.000;9.194;2022-12-20T10:40:27;50.70;;;25.20;;
5475;SDS011;2760;50.000;9.194;2022-12-20T10:42:56;49.03;;;26.30;;
5475;SDS011;2760;50.000;9.194;2022-12-20T10:45:28;47.63;;;23.93;;
5475;SDS011;2760;50.000;9.194;2022-12-20T10:48:22;48.40;;;27.83;;
5475;SDS011;2760;50.000;9.194;2022-12-20T10:50:58;47.10;;;25.20;;
5475;SDS011;2760;50.000;9.194;2022-12-20T10:53:28;46.27;;;25.77;;
5475;SDS011;2760;50.000;9.194;2022-12-20T10:56:08;49.27;;;22.60;;
5475;SDS011;2760;50.000;9.194;2022-12-20T10:58:38;45.37;;;23.10;;
5475;SDS011;2760;50.000;9.194;2022-12-20T11:01:10;56.10;;;28.97;;
5475;SDS011;2760;50.000;9.194;2022-12-20T11:03:51;46.67;;;25.67;;
5475;SDS011;2760;50.000;9.194;2022-12-20T11:06:23;67.90;;;31.20;;
5475;SDS011;2760;50.000;9.194;2022-12-20T11:08:52;48.83;;;26.00;;
5475;SDS011;2760;50.000;9.194;2022-12-20T11:11:20;41.97;;;23.90;;
5475;SDS011;2760;50.000;9.194;2022-12-20T11:13:50;45.87;;;25.10;;
5475;SDS011;2760;50.000;9.194;2022-12-20T11:16:22;49.53;;;25.37;;
5475;SDS011;2760;50.000;9.194;2022-12-20T11:18:54;49.97;;;23.63;;
5475;SDS011;2760;50.000;9.194;2022-12-20T11:21:30;46.13;;;24.93;;
5475;SDS011;2760;50.000;9.194;2022-12-20T11:24:09;53.10;;;27.40;;
5475;SDS011;2760;50.000;9.194;2022-12-20T11:26:50;48.07;;;24.57;;
5475;SDS011;2760;50.000;9.194;2022-12-20T11:29:34;47.07;;;22.97;;
5475;SDS011;2760;50.000;9.194;2022-12-20T11:32:17;47.30;;;23.80;;
5475;SDS011;2760;50.000;9.194;2022-12-20T11:34:56;46.80;;;23.53;;
5475;SDS011;2760;50.000;9.194;2022-12-20T11:37:32;49.60;;;25.40;;
5475;SDS011;2760;50.000;9.194;2022-12-20T11:40:15;43.63;;;24.37;;
5475;SDS011;2760;50.000;9.194;2022-12-20T11:42:51;46.27;;;23.80;;
5475;SDS011;2760;50.000;9.194;2022-12-20T11:45:30;39.03;;;22.93;;
5475;SDS011;2760;50.000;9.194;2022-12-20T11:48:13;46.70;;;25.77;;
5475;SDS011;2760;50.000;9.194;2022-12-20T11:51:03;49.80;;;25.80;;
5475;SDS011;2760;50.000;9.194;2022-12-20T11:53:37;39.83;;;24.07;;
5475;SDS011;2760;50.000;9.194;2022-12-20T11:56:08;42.17;;;24.80;;
5475;SDS011;2760;50.000;9.194;2022-12-20T11:58:45;38.00;;;22.70;;
5475;SDS011;2760;50.000;9.194;2022-12-20T12:01:19;42.87;;;23.20;;
5475;SDS011;2760;50.000;9.194;2022-12-20T12:03:53;40.03;;;22.33;;
5475;SDS011;2760;50.000;9.194;2022-12-20T12:06:30;41.23;;;21.40;;
5475;SDS011;2760;50.000;9.194;2022-12-20T12:09:07;41.23;;;23.27;;
5475;SDS011;2760;50.000;9.194;2022-12-20T12:11:42;42.13;;;23.10;;
5475;SDS011;2760;50.000;9.194;2022-12-20T12:14:26;40.30;;;21.57;;
5475;SDS011;2760;50.000;9.194;2022-12-20T12:17:01;43.47;;;20.53;;
5475;SDS011;2760;50.000;9.194;2022-12-20T12:19:35;34.50;;;20.40;;
5475;SDS011;2760;50.000;9.194;2022-12-20T12:22:08;45.60;;;22.37;;
5475;SDS011;2760;50.000;9.194;2022-12-20T12:24:42;35.93;;;21.27;;
5475;SDS011;2760;50.000;9.194;2022-12-20T12:27:21;40.70;;;23.30;;
5475;SDS011;2760;50.000;9.194;2022-12-20T12:29:50;36.27;;;21.20;;
5475;SDS011;2760;50.000;9.194;2022-12-20T12:32:19;40.67;;;20.50;;
5475;SDS011;2760;50.000;9.194;2022-12-20T12:34:56;33.60;;;19.63;;
5475;SDS011;2760;50.000;9.194;2022-12-20T12:37:50;38.93;;;20.90;;
5475;SDS011;2760;50.000;9.194;2022-12-20T12:43:21;42.83;;;23.30;;
5475;SDS011;2760;50.000;9.194;2022-12-20T12:46:08;38.43;;;21.50;;
5475;SDS011;2760;50.000;9.194;2022-12-20T12:48:38;41.63;;;21.37;;
5475;SDS011;2760;50.000;9.194;2022-12-20T12:51:07;38.43;;;21.10;;
5475;SDS011;2760;50.000;9.194;2022-12-20T12:53:35;43.77;;;22.37;;
5475;SDS011;2760;50.000;9.194;2022-12-20T12:59:19;49.53;;;23.40;;
5475;SDS011;2760;50.000;9.194;2022-12-20T13:01:49;47.40;;;23.90;;
5475;SDS011;2760;50.000;9.194;2022-12-20T13:04:26;42.00;;;21.83;;
5475;SDS011;2760;50.000;9.194;2022-12-20T13:06:55;38.80;;;20.87;;
5475;SDS011;2760;50.000;9.194;2022-12-20T13:18:22;33.77;;;19.77;;
5475;SDS011;2760;50.000;9.194;2022-12-20T13:27:13;46.47;;;23.27;;
5475;SDS011;2760;50.000;9.194;2022-12-20T13:35:59;43.60;;;21.93;;
5475;SDS011;2760;50.000;9.194;2022-12-20T13:41:29;40.80;;;19.97;;
5475;SDS011;2760;50.000;9.194;2022-12-20T13:46:57;36.00;;;21.00;;
5475;SDS011;2760;50.000;9.194;2022-12-20T13:49:28;39.63;;;20.50;;
5475;SDS011;2760;50.000;9.194;2022-12-20T13:52:17;48.67;;;22.40;;
5475;SDS011;2760;50.000;9.194;2022-12-20T13:54:54;40.93;;;22.47;;
5475;SDS011;2760;50.000;9.194;2022-12-20T13:57:27;31.37;;;19.87;;
5475;SDS011;2760;50.000;9.194;2022-12-20T13:59:58;37.73;;;21.17;;
5475;SDS011;2760;50.000;9.194;2022-12-20T14:02:32;31.70;;;19.13;;
5475;SDS011;2760;50.000;9.194;2022-12-20T14:05:02;35.33;;;19.90;;
5475;SDS011;2760;50.000;9.194;2022-12-20T14:07:36;31.93;;;18.40;;
5475;SDS011;2760;50.000;9.194;2022-12-20T14:10:11;50.67;;;22.53;;
5475;SDS011;2760;50.000;9.194;2022-12-20T14:12:45;34.20;;;18.83;;
5475;SDS011;2760;50.000;9.194;2022-12-20T14:15:22;34.63;;;21.03;;
5475;SDS011;2760;50.000;9.194;2022-12-20T14:17:52;38.20;;;20.70;;
5475;SDS011;2760;50.000;9.194;2022-12-20T14:20:21;37.07;;;20.47;;
5475;SDS011;2760;50.000;9.194;2022-12-20T14:22:54;28.93;;;18.93;;
5475;SDS011;2760;50.000;9.194;2022-12-20T14:25:27;31.97;;;18.63;;
5475;SDS011;2760;50.000;9.194;2022-12-20T14:27:56;40.73;;;21.47;;
5475;SDS011;2760;50.000;9.194;2022-12-20T14:30:25;40.50;;;22.60;;
5475;SDS011;2760;50.000;9.194;2022-12-20T14:32:56;38.63;;;23.17;;
5475;SDS011;2760;50.000;9.194;2022-12-20T14:35:24;35.90;;;20.63;;
5475;SDS011;2760;50.000;9.194;2022-12-20T14:37:53;35.10;;;20.77;;
5475;SDS011;2760;50.000;9.194;2022-12-20T14:40:22;35.97;;;21.00;;
5475;SDS011;2760;50.000;9.194;2022-12-20T14:42:50;42.03;;;22.50;;
5475;SDS011;2760;50.000;9.194;2022-12-20T14:45:19;39.40;;;21.57;;
5475;SDS011;2760;50.000;9.194;2022-12-20T14:47:49;46.43;;;22.10;;
5475;SDS011;2760;50.000;9.194;2022-12-20T14:50:21;40.80;;;23.00;;
5475;SDS011;2760;50.000;9.194;2022-12-20T14:52:54;41.70;;;23.43;;
5475;SDS011;2760;50.000;9.194;2022-12-20T14:55:23;45.30;;;23.80;;
5475;SDS011;2760;50.000;9.194;2022-12-20T14:57:53;38.57;;;22.70;;
5475;SDS011;2760;50.000;9.194;2022-12-20T15:00:22;42.30;;;22.03;;
5475;SDS011;2760;50.000;9.194;2022-12-20T15:02:56;42.10;;;22.73;;
5475;SDS011;2760;50.000;9.194;2022-12-20T15:05:40;40.70;;;20.50;;
5475;SDS011;2760;50.000;9.194;2022-12-20T15:08:14;42.13;;;22.50;;
5475;SDS011;2760;50.000;9.194;2022-12-20T15:10:46;38.53;;;22.10;;
5475;SDS011;2760;50.000;9.194;2022-12-20T15:13:20;35.60;;;19.77;;
5475;SDS011;2760;50.000;9.194;2022-12-20T15:15:48;33.57;;;19.10;;
5475;SDS011;2760;50.000;9.194;2022-12-20T15:18:16;34.97;;;20.13;;
5475;SDS011;2760;50.000;9.194;2022-12-20T15:20:45;41.10;;;20.67;;
5475;SDS011;2760;50.000;9.194;2022-12-20T15:23:19;38.30;;;20.20;;
5475;SDS011;2760;50.000;9.194;2022-12-20T15:25:47;41.43;;;23.17;;
5475;SDS011;2760;50.000;9.194;2022-12-20T15:28:15;35.83;;;23.03;;
5475;SDS011;2760;50.000;9.194;2022-12-20T15:30:44;45.80;;;22.00;;
5475;SDS011;2760;50.000;9.194;2022-12-20T15:33:16;40.63;;;23.07;;
5475;SDS011;2760;50.000;9.194;2022-12-20T15:35:45;41.70;;;23.37;;
5475;SDS011;2760;50.000;9.194;2022-12-20T15:38:14;45.80;;;23.00;;
5475;SDS011;2760;50.000;9.194;2022-12-20T15:40:45;40.40;;;22.90;;
5475;SDS011;2760;50.000;9.194;2022-12-20T15:43:14;40.40;;;23.03;;
5475;SDS011;2760;50.000;9.194;2022-12-20T15:45:47;39.57;;;22.90;;
5475;SDS011;2760;50.000;9.194;2022-12-20T15:48:17;44.77;;;23.63;;
5475;SDS011;2760;50.000;9.194;2022-12-20T15:50:50;44.90;;;25.10;;
5475;SDS011;2760;50.000;9.194;2022-12-20T15:53:19;49.70;;;24.37;;